sensor_id;sensor_type;location;lat;lon;timestamp;P1;durP1;ratioP1;P2;durP2;ratioP2
71290;SDS011;59073;51.994;4.448;2023-12-29T00:01:09;4.50;;;3.04;;
71290;SDS011;59073;51.994;4.448;2023-12-29T00:03:35;4.93;;;3.28;;
71290;SDS011;59073;51.994;4.448;2023-12-29T00:06:02;5.34;;;3.53;;
71290;SDS011;59073;51.994;4.448;2023-12-29T00:08:28;5.25;;;3.50;;
71290;SDS011;59073;51.994;4.448;2023-12-29T00:10:53;4.64;;;3.18;;
71290;SDS011;59073;51.994;4.448;2023-12-29T00:13:20;4.61;;;3.10;;
71290;SDS011;59073;51.994;4.448;2023-12-29T00:15:51;4.82;;;3.24;;
71290;SDS011;59073;51.994;4.448;2023-12-29T00:18:17;5.08;;;3.36;;
71290;SDS011;59073;51.994;4.448;2023-12-29T00:20:43;4.66;;;3.12;;
71290;SDS011;59073;51.994;4.448;2023-12-29T00:23:09;4.57;;;3.13;;
71290;SDS011;59073;51.994;4.448;2023-12-29T00:25:37;4.49;;;3.10;;
71290;SDS011;59073;51.994;4.448;2023-12-29T00:28:03;4.58;;;3.19;;
71290;SDS011;59073;51.994;4.448;2023-12-29T00:30:30;4.16;;;2.94;;
71290;SDS011;59073;51.994;4.448;2023-12-29T00:32:55;3.77;;;2.67;;
71290;SDS011;59073;51.994;4.448;2023-12-29T00:35:21;5.22;;;3.66;;
71290;SDS011;59073;51.994;4.448;2023-12-29T00:37:47;4.98;;;3.46;;
71290;SDS011;59073;51.994;4.448;2023-12-29T00:40:12;4.27;;;2.98;;
71290;SDS011;59073;51.994;4.448;2023-12-29T00:42:38;4.08;;;2.86;;
71290;SDS011;59073;51.994;4.448;2023-12-29T00:45:03;4.34;;;2.99;;
71290;SDS011;59073;51.994;4.448;2023-12-29T00:47:30;4.89;;;3.36;;
71290;SDS011;59073;51.994;4.448;2023-12-29T00:49:55;4.09;;;2.83;;
71290;SDS011;59073;51.994;4.448;2023-12-29T00:52:21;4.04;;;2.77;;
71290;SDS011;59073;51.994;4.448;2023-12-29T00:54:46;4.60;;;3.10;;
71290;SDS011;59073;51.994;4.448;2023-12-29T00:57:12;4.69;;;3.19;;
71290;SDS011;59073;51.994;4.448;2023-12-29T00:59:38;3.99;;;2.77;;
71290;SDS011;59073;51.994;4.448;2023-12-29T01:02:05;4.58;;;3.16;;
71290;SDS011;59073;51.994;4.448;2023-12-29T01:04:30;4.23;;;2.90;;
71290;SDS011;59073;51.994;4.448;2023-12-29T01:06:56;4.72;;;3.22;;
71290;SDS011;59073;51.994;4.448;2023-12-29T01:09:22;4.03;;;2.80;;
71290;SDS011;59073;51.994;4.448;2023-12-29T01:11:47;3.58;;;2.51;;
71290;SDS011;59073;51.994;4.448;2023-12-29T01:14:12;4.80;;;3.39;;
71290;SDS011;59073;51.994;4.448;2023-12-29T01:16:39;4.24;;;2.98;;
71290;SDS011;59073;51.994;4.448;2023-12-29T01:19:07;4.16;;;2.89;;
71290;SDS011;59073;51.994;4.448;2023-12-29T01:21:32;3.83;;;2.69;;
71290;SDS011;59073;51.994;4.448;2023-12-29T01:24:02;3.68;;;2.67;;
71290;SDS011;59073;51.994;4.448;2023-12-29T01:26:32;4.19;;;3.02;;
71290;SDS011;59073;51.994;4.448;2023-12-29T01:29:02;3.78;;;2.72;;
71290;SDS011;59073;51.994;4.448;2023-12-29T01:31:30;3.44;;;2.48;;
71290;SDS011;59073;51.994;4.448;2023-12-29T01:33:56;3.48;;;2.52;;
71290;SDS011;59073;51.994;4.448;2023-12-29T01:36:22;4.18;;;3.07;;
71290;SDS011;59073;51.994;4.448;2023-12-29T01:38:47;4.26;;;3.20;;
71290;SDS011;59073;51.994;4.448;2023-12-29T01:41:13;4.15;;;3.09;;
71290;SDS011;59073;51.994;4.448;2023-12-29T01:46:19;4.62;;;3.52;;
71290;SDS011;59073;51.994;4.448;2023-12-29T01:48:45;3.56;;;2.72;;
71290;SDS011;59073;51.994;4.448;2023-12-29T01:51:11;3.62;;;2.75;;
71290;SDS011;59073;51.994;4.448;2023-12-29T01:53:36;3.54;;;2.66;;
71290;SDS011;59073;51.994;4.448;2023-12-29T01:56:02;3.80;;;2.85;;
71290;SDS011;59073;51.994;4.448;2023-12-29T01:58:28;4.21;;;3.10;;
71290;SDS011;59073;51.994;4.448;2023-12-29T02:00:55;4.29;;;3.08;;
71290;SDS011;59073;51.994;4.448;2023-12-29T02:03:20;4.79;;;3.42;;
71290;SDS011;59073;51.994;4.448;2023-12-29T02:05:46;4.00;;;2.91;;
71290;SDS011;59073;51.994;4.448;2023-12-29T02:08:14;3.91;;;2.92;;
71290;SDS011;59073;51.994;4.448;2023-12-29T02:10:40;4.16;;;3.06;;
71290;SDS011;59073;51.994;4.448;2023-12-29T02:13:05;4.00;;;2.94;;
71290;SDS011;59073;51.994;4.448;2023-12-29T02:15:31;4.31;;;3.12;;
71290;SDS011;59073;51.994;4.448;2023-12-29T02:17:58;3.62;;;2.58;;
71290;SDS011;59073;51.994;4.448;2023-12-29T02:20:28;4.16;;;2.99;;
71290;SDS011;59073;51.994;4.448;2023-12-29T02:22:54;3.86;;;2.88;;
71290;SDS011;59073;51.994;4.448;2023-12-29T02:25:20;4.02;;;3.13;;
71290;SDS011;59073;51.994;4.448;2023-12-29T02:27:52;3.69;;;2.99;;
71290;SDS011;59073;51.994;4.448;2023-12-29T02:30:29;3.73;;;3.10;;
71290;SDS011;59073;51.994;4.448;2023-12-29T02:33:04;3.15;;;2.61;;
71290;SDS011;59073;51.994;4.448;2023-12-29T02:35:34;3.83;;;3.03;;
71290;SDS011;59073;51.994;4.448;2023-12-29T02:38:04;4.59;;;3.47;;
71290;SDS011;59073;51.994;4.448;2023-12-29T02:40:30;5.29;;;3.75;;
71290;SDS011;59073;51.994;4.448;2023-12-29T02:42:56;5.55;;;3.78;;
71290;SDS011;59073;51.994;4.448;2023-12-29T02:45:21;6.11;;;4.06;;
71290;SDS011;59073;51.994;4.448;2023-12-29T02:47:47;5.54;;;3.62;;
71290;SDS011;59073;51.994;4.448;2023-12-29T02:50:13;6.03;;;3.91;;
71290;SDS011;59073;51.994;4.448;2023-12-29T02:52:39;7.16;;;4.64;;
71290;SDS011;59073;51.994;4.448;2023-12-29T02:55:04;6.79;;;4.35;;
71290;SDS011;59073;51.994;4.448;2023-12-29T02:57:30;8.29;;;5.17;;
71290;SDS011;59073;51.994;4.448;2023-12-29T02:59:56;8.26;;;5.07;;
71290;SDS011;59073;51.994;4.448;2023-12-29T03:02:22;9.64;;;5.90;;
71290;SDS011;59073;51.994;4.448;2023-12-29T03:04:48;9.08;;;5.45;;
71290;SDS011;59073;51.994;4.448;2023-12-29T03:07:14;11.26;;;6.64;;
71290;SDS011;59073;51.994;4.448;2023-12-29T03:09:40;13.11;;;7.70;;
71290;SDS011;59073;51.994;4.448;2023-12-29T03:12:05;11.71;;;7.00;;
71290;SDS011;59073;51.994;4.448;2023-12-29T03:14:31;11.81;;;7.15;;
71290;SDS011;59073;51.994;4.448;2023-12-29T03:16:57;11.90;;;7.22;;
71290;SDS011;59073;51.994;4.448;2023-12-29T03:19:22;12.87;;;7.78;;
71290;SDS011;59073;51.994;4.448;2023-12-29T03:21:48;13.89;;;8.25;;
71290;SDS011;59073;51.994;4.448;2023-12-29T03:24:14;14.10;;;8.32;;
71290;SDS011;59073;51.994;4.448;2023-12-29T03:26:39;12.49;;;7.49;;
71290;SDS011;59073;51.994;4.448;2023-12-29T03:29:05;11.69;;;7.09;;
71290;SDS011;59073;51.994;4.448;2023-12-29T03:31:30;12.98;;;7.84;;
71290;SDS011;59073;51.994;4.448;2023-12-29T03:33:55;11.84;;;7.10;;
71290;SDS011;59073;51.994;4.448;2023-12-29T03:36:21;11.42;;;6.83;;
71290;SDS011;59073;51.994;4.448;2023-12-29T03:38:46;10.80;;;6.41;;
71290;SDS011;59073;51.994;4.448;2023-12-29T03:41:12;11.37;;;6.83;;
71290;SDS011;59073;51.994;4.448;2023-12-29T03:43:37;11.14;;;6.76;;
71290;SDS011;59073;51.994;4.448;2023-12-29T03:46:03;10.93;;;6.63;;
71290;SDS011;59073;51.994;4.448;2023-12-29T03:48:39;12.16;;;7.25;;
71290;SDS011;59073;51.994;4.448;2023-12-29T03:51:05;15.46;;;8.95;;
71290;SDS011;59073;51.994;4.448;2023-12-29T03:53:30;13.13;;;7.74;;
71290;SDS011;59073;51.994;4.448;2023-12-29T03:55:56;14.05;;;8.34;;
71290;SDS011;59073;51.994;4.448;2023-12-29T03:58:21;13.63;;;8.11;;
71290;SDS011;59073;51.994;4.448;2023-12-29T04:00:46;13.72;;;8.12;;
71290;SDS011;59073;51.994;4.448;2023-12-29T04:03:12;14.58;;;8.48;;
71290;SDS011;59073;51.994;4.448;2023-12-29T04:05:37;14.23;;;8.48;;
71290;SDS011;59073;51.994;4.448;2023-12-29T04:08:03;12.90;;;7.61;;
71290;SDS011;59073;51.994;4.448;2023-12-29T04:10:29;14.73;;;8.55;;
71290;SDS011;59073;51.994;4.448;2023-12-29T04:12:54;13.26;;;7.79;;
71290;SDS011;59073;51.994;4.448;2023-12-29T04:15:20;13.25;;;7.91;;
71290;SDS011;59073;51.994;4.448;2023-12-29T04:17:45;13.55;;;8.05;;
71290;SDS011;59073;51.994;4.448;2023-12-29T04:20:10;14.20;;;8.34;;
71290;SDS011;59073;51.994;4.448;2023-12-29T04:22:36;13.29;;;7.75;;
71290;SDS011;59073;51.994;4.448;2023-12-29T04:25:01;13.54;;;7.98;;
71290;SDS011;59073;51.994;4.448;2023-12-29T04:27:27;13.91;;;8.12;;
71290;SDS011;59073;51.994;4.448;2023-12-29T04:29:52;14.64;;;8.52;;
71290;SDS011;59073;51.994;4.448;2023-12-29T04:32:18;12.01;;;7.16;;
71290;SDS011;59073;51.994;4.448;2023-12-29T04:34:43;11.50;;;6.86;;
71290;SDS011;59073;51.994;4.448;2023-12-29T04:37:09;12.07;;;7.13;;
71290;SDS011;59073;51.994;4.448;2023-12-29T04:39:34;14.98;;;8.74;;
71290;SDS011;59073;51.994;4.448;2023-12-29T04:42:00;13.87;;;8.10;;
71290;SDS011;59073;51.994;4.448;2023-12-29T04:44:25;14.09;;;8.29;;
71290;SDS011;59073;51.994;4.448;2023-12-29T04:46:50;11.95;;;7.15;;
71290;SDS011;59073;51.994;4.448;2023-12-29T04:49:16;11.59;;;6.91;;
71290;SDS011;59073;51.994;4.448;2023-12-29T04:51:41;14.19;;;8.32;;
71290;SDS011;59073;51.994;4.448;2023-12-29T04:54:07;12.79;;;7.37;;
71290;SDS011;59073;51.994;4.448;2023-12-29T04:56:32;12.99;;;7.67;;
71290;SDS011;59073;51.994;4.448;2023-12-29T04:58:58;11.36;;;6.70;;
71290;SDS011;59073;51.994;4.448;2023-12-29T05:01:24;12.85;;;7.52;;
71290;SDS011;59073;51.994;4.448;2023-12-29T05:03:49;13.22;;;7.63;;
71290;SDS011;59073;51.994;4.448;2023-12-29T05:06:15;14.17;;;8.21;;
71290;SDS011;59073;51.994;4.448;2023-12-29T05:08:40;14.23;;;8.38;;
71290;SDS011;59073;51.994;4.448;2023-12-29T05:11:06;14.07;;;8.25;;
71290;SDS011;59073;51.994;4.448;2023-12-29T05:13:31;13.77;;;8.04;;
71290;SDS011;59073;51.994;4.448;2023-12-29T05:15:57;15.30;;;8.85;;
71290;SDS011;59073;51.994;4.448;2023-12-29T05:18:22;13.86;;;8.02;;
71290;SDS011;59073;51.994;4.448;2023-12-29T05:20:47;14.63;;;8.44;;
71290;SDS011;59073;51.994;4.448;2023-12-29T05:23:13;12.76;;;7.43;;
71290;SDS011;59073;51.994;4.448;2023-12-29T05:25:39;13.07;;;7.65;;
71290;SDS011;59073;51.994;4.448;2023-12-29T05:28:04;12.34;;;7.32;;
71290;SDS011;59073;51.994;4.448;2023-12-29T05:30:30;12.16;;;7.21;;
71290;SDS011;59073;51.994;4.448;2023-12-29T05:32:56;10.15;;;6.11;;
71290;SDS011;59073;51.994;4.448;2023-12-29T05:35:22;8.41;;;5.13;;
71290;SDS011;59073;51.994;4.448;2023-12-29T05:37:47;9.17;;;5.66;;
71290;SDS011;59073;51.994;4.448;2023-12-29T05:40:13;8.01;;;4.89;;
71290;SDS011;59073;51.994;4.448;2023-12-29T05:42:38;11.15;;;6.69;;
71290;SDS011;59073;51.994;4.448;2023-12-29T05:45:04;9.42;;;5.61;;
71290;SDS011;59073;51.994;4.448;2023-12-29T05:47:30;8.42;;;4.99;;
71290;SDS011;59073;51.994;4.448;2023-12-29T05:49:55;9.70;;;5.66;;
71290;SDS011;59073;51.994;4.448;2023-12-29T05:52:21;10.33;;;6.07;;
71290;SDS011;59073;51.994;4.448;2023-12-29T05:54:46;9.13;;;5.44;;
71290;SDS011;59073;51.994;4.448;2023-12-29T05:57:12;8.28;;;4.93;;
71290;SDS011;59073;51.994;4.448;2023-12-29T05:59:37;7.76;;;4.58;;
71290;SDS011;59073;51.994;4.448;2023-12-29T06:02:03;8.55;;;5.02;;
71290;SDS011;59073;51.994;4.448;2023-12-29T06:04:28;8.68;;;5.14;;
71290;SDS011;59073;51.994;4.448;2023-12-29T06:06:54;7.14;;;4.26;;
71290;SDS011;59073;51.994;4.448;2023-12-29T06:09:19;8.17;;;4.80;;
71290;SDS011;59073;51.994;4.448;2023-12-29T06:11:45;8.50;;;5.03;;
71290;SDS011;59073;51.994;4.448;2023-12-29T06:14:10;7.26;;;4.35;;
71290;SDS011;59073;51.994;4.448;2023-12-29T06:16:36;8.57;;;5.15;;
71290;SDS011;59073;51.994;4.448;2023-12-29T06:19:01;7.07;;;4.29;;
71290;SDS011;59073;51.994;4.448;2023-12-29T06:21:27;6.43;;;3.96;;
71290;SDS011;59073;51.994;4.448;2023-12-29T06:23:52;6.39;;;3.89;;
71290;SDS011;59073;51.994;4.448;2023-12-29T06:26:18;6.39;;;3.85;;
71290;SDS011;59073;51.994;4.448;2023-12-29T06:28:45;6.73;;;4.04;;
71290;SDS011;59073;51.994;4.448;2023-12-29T06:31:11;7.43;;;4.45;;
71290;SDS011;59073;51.994;4.448;2023-12-29T06:33:40;7.10;;;4.22;;
71290;SDS011;59073;51.994;4.448;2023-12-29T06:36:07;6.50;;;3.89;;
71290;SDS011;59073;51.994;4.448;2023-12-29T06:38:32;7.15;;;4.31;;
71290;SDS011;59073;51.994;4.448;2023-12-29T06:40:59;7.50;;;4.48;;
71290;SDS011;59073;51.994;4.448;2023-12-29T06:43:26;6.55;;;3.94;;
71290;SDS011;59073;51.994;4.448;2023-12-29T06:45:52;6.60;;;4.03;;
71290;SDS011;59073;51.994;4.448;2023-12-29T06:48:17;4.93;;;3.05;;
71290;SDS011;59073;51.994;4.448;2023-12-29T06:50:43;5.12;;;3.18;;
71290;SDS011;59073;51.994;4.448;2023-12-29T06:53:08;5.16;;;3.23;;
71290;SDS011;59073;51.994;4.448;2023-12-29T06:55:34;4.86;;;3.00;;
71290;SDS011;59073;51.994;4.448;2023-12-29T06:57:59;5.39;;;3.28;;
71290;SDS011;59073;51.994;4.448;2023-12-29T07:00:25;5.52;;;3.37;;
71290;SDS011;59073;51.994;4.448;2023-12-29T07:02:50;5.00;;;3.14;;
71290;SDS011;59073;51.994;4.448;2023-12-29T07:05:15;4.66;;;2.96;;
71290;SDS011;59073;51.994;4.448;2023-12-29T07:07:41;4.92;;;3.13;;
71290;SDS011;59073;51.994;4.448;2023-12-29T07:10:07;5.39;;;3.47;;
71290;SDS011;59073;51.994;4.448;2023-12-29T07:12:33;5.44;;;3.60;;
71290;SDS011;59073;51.994;4.448;2023-12-29T07:14:58;4.97;;;3.37;;
71290;SDS011;59073;51.994;4.448;2023-12-29T07:17:24;4.87;;;3.35;;
71290;SDS011;59073;51.994;4.448;2023-12-29T07:19:49;5.03;;;3.44;;
71290;SDS011;59073;51.994;4.448;2023-12-29T07:22:15;4.96;;;3.35;;
71290;SDS011;59073;51.994;4.448;2023-12-29T07:24:40;4.59;;;3.10;;
71290;SDS011;59073;51.994;4.448;2023-12-29T07:27:06;4.62;;;3.09;;
71290;SDS011;59073;51.994;4.448;2023-12-29T07:29:33;5.17;;;3.41;;
71290;SDS011;59073;51.994;4.448;2023-12-29T07:31:58;4.32;;;2.83;;
71290;SDS011;59073;51.994;4.448;2023-12-29T07:34:24;3.69;;;2.46;;
71290;SDS011;59073;51.994;4.448;2023-12-29T07:36:50;4.71;;;3.05;;
71290;SDS011;59073;51.994;4.448;2023-12-29T07:39:16;3.98;;;2.58;;
71290;SDS011;59073;51.994;4.448;2023-12-29T07:41:41;3.34;;;2.18;;
71290;SDS011;59073;51.994;4.448;2023-12-29T07:44:08;4.91;;;3.20;;
71290;SDS011;59073;51.994;4.448;2023-12-29T07:46:35;4.15;;;2.70;;
71290;SDS011;59073;51.994;4.448;2023-12-29T07:49:00;4.15;;;2.70;;
71290;SDS011;59073;51.994;4.448;2023-12-29T07:51:26;4.10;;;2.70;;
71290;SDS011;59073;51.994;4.448;2023-12-29T07:53:51;4.86;;;3.31;;
71290;SDS011;59073;51.994;4.448;2023-12-29T07:56:17;4.44;;;3.26;;
71290;SDS011;59073;51.994;4.448;2023-12-29T07:58:42;3.32;;;2.56;;
71290;SDS011;59073;51.994;4.448;2023-12-29T08:01:08;3.75;;;2.94;;
71290;SDS011;59073;51.994;4.448;2023-12-29T08:03:35;4.05;;;3.51;;
71290;SDS011;59073;51.994;4.448;2023-12-29T08:06:01;2.27;;;2.06;;
71290;SDS011;59073;51.994;4.448;2023-12-29T08:08:27;1.96;;;1.73;;
71290;SDS011;59073;51.994;4.448;2023-12-29T08:10:52;1.35;;;1.17;;
71290;SDS011;59073;51.994;4.448;2023-12-29T08:13:18;2.03;;;1.77;;
71290;SDS011;59073;51.994;4.448;2023-12-29T08:15:43;1.52;;;1.29;;
71290;SDS011;59073;51.994;4.448;2023-12-29T08:18:08;1.53;;;1.26;;
71290;SDS011;59073;51.994;4.448;2023-12-29T08:20:34;1.46;;;1.20;;
71290;SDS011;59073;51.994;4.448;2023-12-29T08:23:00;1.51;;;1.23;;
71290;SDS011;59073;51.994;4.448;2023-12-29T08:25:28;1.48;;;1.21;;
71290;SDS011;59073;51.994;4.448;2023-12-29T08:27:54;1.88;;;1.53;;
71290;SDS011;59073;51.994;4.448;2023-12-29T08:30:20;2.03;;;1.60;;
71290;SDS011;59073;51.994;4.448;2023-12-29T08:32:46;1.70;;;1.33;;
71290;SDS011;59073;51.994;4.448;2023-12-29T08:35:11;2.21;;;1.69;;
71290;SDS011;59073;51.994;4.448;2023-12-29T08:37:36;1.59;;;1.21;;
71290;SDS011;59073;51.994;4.448;2023-12-29T08:40:02;1.80;;;1.40;;
71290;SDS011;59073;51.994;4.448;2023-12-29T08:42:28;2.11;;;1.65;;
71290;SDS011;59073;51.994;4.448;2023-12-29T08:44:54;2.08;;;1.60;;
71290;SDS011;59073;51.994;4.448;2023-12-29T08:47:19;3.11;;;2.34;;
71290;SDS011;59073;51.994;4.448;2023-12-29T08:49:45;2.56;;;1.94;;
71290;SDS011;59073;51.994;4.448;2023-12-29T08:52:11;1.68;;;1.28;;
71290;SDS011;59073;51.994;4.448;2023-12-29T08:54:37;2.65;;;1.98;;
71290;SDS011;59073;51.994;4.448;2023-12-29T08:57:03;2.90;;;2.15;;
71290;SDS011;59073;51.994;4.448;2023-12-29T08:59:29;2.49;;;1.82;;
71290;SDS011;59073;51.994;4.448;2023-12-29T09:01:54;1.94;;;1.45;;
71290;SDS011;59073;51.994;4.448;2023-12-29T09:04:20;1.90;;;1.41;;
71290;SDS011;59073;51.994;4.448;2023-12-29T09:06:45;1.91;;;1.39;;
71290;SDS011;59073;51.994;4.448;2023-12-29T09:09:11;2.08;;;1.50;;
71290;SDS011;59073;51.994;4.448;2023-12-29T09:11:38;2.37;;;1.70;;
71290;SDS011;59073;51.994;4.448;2023-12-29T09:14:04;2.79;;;1.97;;
71290;SDS011;59073;51.994;4.448;2023-12-29T09:16:30;2.08;;;1.48;;
71290;SDS011;59073;51.994;4.448;2023-12-29T09:18:56;2.51;;;1.80;;
71290;SDS011;59073;51.994;4.448;2023-12-29T09:21:21;2.00;;;1.42;;
71290;SDS011;59073;51.994;4.448;2023-12-29T09:23:47;2.41;;;1.71;;
71290;SDS011;59073;51.994;4.448;2023-12-29T09:26:13;2.70;;;1.89;;
71290;SDS011;59073;51.994;4.448;2023-12-29T09:28:41;2.37;;;1.68;;
71290;SDS011;59073;51.994;4.448;2023-12-29T09:31:11;3.15;;;2.17;;
71290;SDS011;59073;51.994;4.448;2023-12-29T09:33:37;2.99;;;2.01;;
71290;SDS011;59073;51.994;4.448;2023-12-29T09:36:03;2.91;;;1.93;;
71290;SDS011;59073;51.994;4.448;2023-12-29T09:38:29;3.55;;;2.31;;
71290;SDS011;59073;51.994;4.448;2023-12-29T09:40:55;2.84;;;1.87;;
71290;SDS011;59073;51.994;4.448;2023-12-29T09:43:28;3.02;;;2.02;;
71290;SDS011;59073;51.994;4.448;2023-12-29T09:45:56;3.12;;;2.06;;
71290;SDS011;59073;51.994;4.448;2023-12-29T09:48:23;4.04;;;2.61;;
71290;SDS011;59073;51.994;4.448;2023-12-29T09:50:52;4.03;;;2.56;;
71290;SDS011;59073;51.994;4.448;2023-12-29T09:53:19;4.17;;;2.64;;
71290;SDS011;59073;51.994;4.448;2023-12-29T09:55:48;3.00;;;1.90;;
71290;SDS011;59073;51.994;4.448;2023-12-29T09:58:15;3.82;;;2.41;;
71290;SDS011;59073;51.994;4.448;2023-12-29T10:00:42;3.94;;;2.46;;
71290;SDS011;59073;51.994;4.448;2023-12-29T10:03:08;4.23;;;2.60;;
71290;SDS011;59073;51.994;4.448;2023-12-29T10:05:33;4.26;;;2.61;;
71290;SDS011;59073;51.994;4.448;2023-12-29T10:08:00;4.25;;;2.59;;
71290;SDS011;59073;51.994;4.448;2023-12-29T10:10:28;5.31;;;3.22;;
71290;SDS011;59073;51.994;4.448;2023-12-29T10:12:56;5.59;;;3.39;;
71290;SDS011;59073;51.994;4.448;2023-12-29T10:15:33;5.31;;;3.24;;
71290;SDS011;59073;51.994;4.448;2023-12-29T10:18:09;7.27;;;4.41;;
71290;SDS011;59073;51.994;4.448;2023-12-29T10:20:51;7.05;;;4.21;;
71290;SDS011;59073;51.994;4.448;2023-12-29T10:23:40;7.07;;;4.16;;
71290;SDS011;59073;51.994;4.448;2023-12-29T10:26:11;7.89;;;4.63;;
71290;SDS011;59073;51.994;4.448;2023-12-29T10:28:38;7.25;;;4.26;;
71290;SDS011;59073;51.994;4.448;2023-12-29T10:31:04;8.78;;;5.16;;
71290;SDS011;59073;51.994;4.448;2023-12-29T10:33:30;8.08;;;4.73;;
71290;SDS011;59073;51.994;4.448;2023-12-29T10:36:01;7.86;;;4.52;;
71290;SDS011;59073;51.994;4.448;2023-12-29T10:38:28;8.42;;;4.85;;
71290;SDS011;59073;51.994;4.448;2023-12-29T10:40:54;8.33;;;4.85;;
71290;SDS011;59073;51.994;4.448;2023-12-29T10:43:39;7.72;;;4.48;;
71290;SDS011;59073;51.994;4.448;2023-12-29T10:46:09;7.70;;;4.50;;
71290;SDS011;59073;51.994;4.448;2023-12-29T10:48:36;8.24;;;4.82;;
71290;SDS011;59073;51.994;4.448;2023-12-29T10:51:02;7.84;;;4.61;;
71290;SDS011;59073;51.994;4.448;2023-12-29T10:53:32;7.64;;;4.49;;
71290;SDS011;59073;51.994;4.448;2023-12-29T10:55:58;8.18;;;4.80;;
71290;SDS011;59073;51.994;4.448;2023-12-29T10:58:25;7.59;;;4.45;;
71290;SDS011;59073;51.994;4.448;2023-12-29T11:00:55;8.62;;;5.08;;
71290;SDS011;59073;51.994;4.448;2023-12-29T11:03:21;6.15;;;3.60;;
71290;SDS011;59073;51.994;4.448;2023-12-29T11:05:48;8.48;;;4.97;;
71290;SDS011;59073;51.994;4.448;2023-12-29T11:08:17;7.06;;;4.15;;
71290;SDS011;59073;51.994;4.448;2023-12-29T11:10:43;7.32;;;4.33;;
71290;SDS011;59073;51.994;4.448;2023-12-29T11:13:10;6.37;;;3.81;;
71290;SDS011;59073;51.994;4.448;2023-12-29T11:15:39;7.86;;;4.70;;
71290;SDS011;59073;51.994;4.448;2023-12-29T11:18:09;7.72;;;4.51;;
71290;SDS011;59073;51.994;4.448;2023-12-29T11:20:38;7.32;;;4.25;;
71290;SDS011;59073;51.994;4.448;2023-12-29T11:23:04;8.20;;;4.89;;
71290;SDS011;59073;51.994;4.448;2023-12-29T11:25:33;7.83;;;4.72;;
71290;SDS011;59073;51.994;4.448;2023-12-29T11:27:59;8.52;;;5.12;;
71290;SDS011;59073;51.994;4.448;2023-12-29T11:30:26;8.07;;;4.81;;
71290;SDS011;59073;51.994;4.448;2023-12-29T11:32:56;7.85;;;4.65;;
71290;SDS011;59073;51.994;4.448;2023-12-29T11:38:23;9.00;;;5.15;;
71290;SDS011;59073;51.994;4.448;2023-12-29T11:41:21;9.02;;;5.16;;
71290;SDS011;59073;51.994;4.448;2023-12-29T11:44:06;8.85;;;5.11;;
71290;SDS011;59073;51.994;4.448;2023-12-29T11:46:32;8.05;;;4.69;;
71290;SDS011;59073;51.994;4.448;2023-12-29T11:49:04;7.72;;;4.50;;
71290;SDS011;59073;51.994;4.448;2023-12-29T11:53:57;7.83;;;4.60;;
71290;SDS011;59073;51.994;4.448;2023-12-29T11:56:23;6.71;;;3.96;;
71290;SDS011;59073;51.994;4.448;2023-12-29T11:58:48;6.14;;;3.64;;
71290;SDS011;59073;51.994;4.448;2023-12-29T12:01:27;6.45;;;3.80;;
71290;SDS011;59073;51.994;4.448;2023-12-29T12:03:59;6.25;;;3.68;;
71290;SDS011;59073;51.994;4.448;2023-12-29T12:06:36;6.84;;;4.00;;
71290;SDS011;59073;51.994;4.448;2023-12-29T12:09:21;7.54;;;4.35;;
71290;SDS011;59073;51.994;4.448;2023-12-29T12:11:48;5.63;;;3.26;;
71290;SDS011;59073;51.994;4.448;2023-12-29T12:17:11;7.36;;;4.30;;
71290;SDS011;59073;51.994;4.448;2023-12-29T12:19:36;6.89;;;4.04;;
71290;SDS011;59073;51.994;4.448;2023-12-29T12:22:02;5.44;;;3.19;;
71290;SDS011;59073;51.994;4.448;2023-12-29T12:24:28;6.41;;;3.74;;
71290;SDS011;59073;51.994;4.448;2023-12-29T12:26:56;7.25;;;4.21;;
71290;SDS011;59073;51.994;4.448;2023-12-29T12:29:22;7.77;;;4.54;;
71290;SDS011;59073;51.994;4.448;2023-12-29T12:31:52;6.02;;;3.57;;
71290;SDS011;59073;51.994;4.448;2023-12-29T12:34:21;6.57;;;3.91;;
71290;SDS011;59073;51.994;4.448;2023-12-29T12:36:50;7.60;;;4.52;;
71290;SDS011;59073;51.994;4.448;2023-12-29T12:39:17;6.30;;;3.74;;
71290;SDS011;59073;51.994;4.448;2023-12-29T12:41:43;6.29;;;3.71;;
71290;SDS011;59073;51.994;4.448;2023-12-29T12:44:12;7.30;;;4.33;;
71290;SDS011;59073;51.994;4.448;2023-12-29T12:46:51;5.52;;;3.30;;
71290;SDS011;59073;51.994;4.448;2023-12-29T12:49:24;4.98;;;3.01;;
71290;SDS011;59073;51.994;4.448;2023-12-29T12:51:52;5.43;;;3.29;;
71290;SDS011;59073;51.994;4.448;2023-12-29T12:54:22;5.91;;;3.55;;
71290;SDS011;59073;51.994;4.448;2023-12-29T12:56:48;5.55;;;3.34;;
71290;SDS011;59073;51.994;4.448;2023-12-29T12:59:15;5.76;;;3.46;;
71290;SDS011;59073;51.994;4.448;2023-12-29T13:01:44;5.59;;;3.35;;
71290;SDS011;59073;51.994;4.448;2023-12-29T13:04:10;5.34;;;3.18;;
71290;SDS011;59073;51.994;4.448;2023-12-29T13:06:40;5.62;;;3.37;;
71290;SDS011;59073;51.994;4.448;2023-12-29T13:09:08;5.86;;;3.51;;
71290;SDS011;59073;51.994;4.448;2023-12-29T13:11:37;6.14;;;3.66;;
71290;SDS011;59073;51.994;4.448;2023-12-29T13:14:06;6.01;;;3.64;;
71290;SDS011;59073;51.994;4.448;2023-12-29T13:16:33;5.55;;;3.35;;
71290;SDS011;59073;51.994;4.448;2023-12-29T13:21:52;4.99;;;3.02;;
71290;SDS011;59073;51.994;4.448;2023-12-29T13:24:20;5.40;;;3.24;;
71290;SDS011;59073;51.994;4.448;2023-12-29T13:26:57;4.91;;;2.94;;
71290;SDS011;59073;51.994;4.448;2023-12-29T13:29:35;5.70;;;3.42;;
71290;SDS011;59073;51.994;4.448;2023-12-29T13:32:04;5.93;;;3.56;;
71290;SDS011;59073;51.994;4.448;2023-12-29T13:37:36;5.20;;;3.10;;
71290;SDS011;59073;51.994;4.448;2023-12-29T13:40:17;5.58;;;3.34;;
71290;SDS011;59073;51.994;4.448;2023-12-29T13:42:50;5.60;;;3.45;;
71290;SDS011;59073;51.994;4.448;2023-12-29T13:45:22;6.52;;;4.08;;
71290;SDS011;59073;51.994;4.448;2023-12-29T13:47:49;5.51;;;3.44;;
71290;SDS011;59073;51.994;4.448;2023-12-29T13:50:16;6.27;;;3.92;;
71290;SDS011;59073;51.994;4.448;2023-12-29T13:52:42;5.76;;;3.59;;
71290;SDS011;59073;51.994;4.448;2023-12-29T13:55:08;6.27;;;3.88;;
71290;SDS011;59073;51.994;4.448;2023-12-29T13:57:34;7.34;;;4.43;;
71290;SDS011;59073;51.994;4.448;2023-12-29T14:02:41;8.46;;;5.23;;
71290;SDS011;59073;51.994;4.448;2023-12-29T14:05:14;7.42;;;4.61;;
71290;SDS011;59073;51.994;4.448;2023-12-29T14:07:52;8.61;;;5.35;;
71290;SDS011;59073;51.994;4.448;2023-12-29T14:10:23;8.30;;;5.24;;
71290;SDS011;59073;51.994;4.448;2023-12-29T14:12:53;6.54;;;4.24;;
71290;SDS011;59073;51.994;4.448;2023-12-29T14:15:18;6.78;;;4.28;;
71290;SDS011;59073;51.994;4.448;2023-12-29T14:17:44;9.03;;;5.64;;
71290;SDS011;59073;51.994;4.448;2023-12-29T14:20:10;8.39;;;5.20;;
71290;SDS011;59073;51.994;4.448;2023-12-29T14:22:35;8.33;;;5.18;;
71290;SDS011;59073;51.994;4.448;2023-12-29T14:25:04;8.02;;;4.95;;
71290;SDS011;59073;51.994;4.448;2023-12-29T14:27:30;9.14;;;5.53;;
71290;SDS011;59073;51.994;4.448;2023-12-29T14:29:56;8.05;;;4.80;;
71290;SDS011;59073;51.994;4.448;2023-12-29T14:32:22;9.04;;;5.32;;
71290;SDS011;59073;51.994;4.448;2023-12-29T14:34:49;7.85;;;4.57;;
71290;SDS011;59073;51.994;4.448;2023-12-29T14:37:20;5.88;;;3.44;;
71290;SDS011;59073;51.994;4.448;2023-12-29T14:39:52;5.98;;;3.53;;
71290;SDS011;59073;51.994;4.448;2023-12-29T14:42:17;6.10;;;3.60;;
71290;SDS011;59073;51.994;4.448;2023-12-29T14:44:46;5.36;;;3.12;;
71290;SDS011;59073;51.994;4.448;2023-12-29T14:47:15;6.41;;;3.73;;
71290;SDS011;59073;51.994;4.448;2023-12-29T14:49:42;6.25;;;3.65;;
71290;SDS011;59073;51.994;4.448;2023-12-29T14:52:07;7.76;;;4.56;;
71290;SDS011;59073;51.994;4.448;2023-12-29T14:54:33;6.94;;;4.12;;
71290;SDS011;59073;51.994;4.448;2023-12-29T14:56:58;6.58;;;3.94;;
71290;SDS011;59073;51.994;4.448;2023-12-29T14:59:24;6.40;;;3.84;;
71290;SDS011;59073;51.994;4.448;2023-12-29T15:01:49;6.27;;;3.74;;
71290;SDS011;59073;51.994;4.448;2023-12-29T15:04:15;6.47;;;3.82;;